Time;durP1;ratioP1;P1;durP2;ratioP2;P2;SDS_P1;SDS_P2;PMS_P1;PMS_P2;Temp;Humidity;BMP_temperature;BMP_pressure;BME280_temperature;BME280_humidity;BME280_pressure;Samples;Min_cycle;Max_cycle;Signal;HPM_P1;HPM_P2
2023/10/26 00:00:17;;;;;;;3.10;1.45;;;;;;;;;;5034953;28;20099;-61
2023/10/26 00:02:43;;;;;;;2.70;1.52;;;;;;;;;;5029708;28;21797;-61
2023/10/26 00:05:09;;;;;;;2.83;1.40;;;;;;;;;;5033513;28;20207;-61
2023/10/26 00:07:35;;;;;;;3.38;1.55;;;;;;;;;;5032100;28;20557;-61
2023/10/26 00:10:00;;;;;;;3.22;1.85;;;;;;;;;;5032041;28;20073;-61
2023/10/26 00:12:26;;;;;;;6.03;1.88;;;;;;;;;;5033373;28;20325;-61
2023/10/26 00:14:52;;;;;;;2.65;1.52;;;;;;;;;;5032160;28;20071;-61
2023/10/26 00:17:17;;;;;;;2.72;1.63;;;;;;;;;;5032579;28;20049;-62
2023/10/26 00:19:43;;;;;;;2.60;1.60;;;;;;;;;;5031199;28;20654;-60
2023/10/26 00:22:08;;;;;;;3.33;1.50;;;;;;;;;;5033070;28;20041;-61
2023/10/26 00:24:34;;;;;;;3.80;1.85;;;;;;;;;;5033814;28;20048;-60
2023/10/26 00:27:00;;;;;;;2.85;1.38;;;;;;;;;;5034360;28;20690;-61
2023/10/26 00:29:25;;;;;;;2.67;1.45;;;;;;;;;;5032235;28;20083;-60
2023/10/26 00:31:51;;;;;;;3.10;1.30;;;;;;;;;;5035240;28;20024;-60
2023/10/26 00:34:16;;;;;;;3.03;1.40;;;;;;;;;;5034913;28;20033;-61
2023/10/26 00:36:43;;;;;;;2.20;1.30;;;;;;;;;;5035870;28;20143;-61
2023/10/26 00:39:09;;;;;;;5.70;1.30;;;;;;;;;;5037763;28;20067;-59
2023/10/26 00:41:35;;;;;;;3.15;1.60;;;;;;;;;;5036076;28;20033;-60
2023/10/26 00:44:00;;;;;;;3.25;1.52;;;;;;;;;;5037263;28;20041;-60
2023/10/26 00:46:26;;;;;;;2.67;1.50;;;;;;;;;;5036272;28;20060;-61
2023/10/26 00:48:52;;;;;;;3.05;1.40;;;;;;;;;;5036754;28;20446;-60
2023/10/26 00:51:18;;;;;;;2.50;1.40;;;;;;;;;;5038538;28;20041;-60
2023/10/26 00:53:43;;;;;;;5.68;1.60;;;;;;;;;;5035768;28;20095;-61
2023/10/26 00:56:10;;;;;;;2.80;1.50;;;;;;;;;;5036449;28;20729;-61
2023/10/26 00:58:35;;;;;;;3.58;1.38;;;;;;;;;;5034747;28;20061;-62
2023/10/26 01:01:01;;;;;;;2.90;1.40;;;;;;;;;;5035853;28;20397;-61
2023/10/26 01:03:29;;;;;;;3.15;1.55;;;;;;;;;;5033617;28;20041;-59
2023/10/26 01:05:55;;;;;;;4.35;1.40;;;;;;;;;;5034408;28;20069;-60
2023/10/26 01:08:20;;;;;;;3.20;1.80;;;;;;;;;;5036281;28;20118;-60
2023/10/26 01:10:46;;;;;;;2.90;1.55;;;;;;;;;;5033928;28;20029;-59
2023/10/26 01:13:12;;;;;;;3.72;1.50;;;;;;;;;;5037442;28;20121;-62
2023/10/26 01:15:38;;;;;;;2.40;1.30;;;;;;;;;;5033086;28;20076;-61
2023/10/26 01:18:03;;;;;;;3.53;1.60;;;;;;;;;;5034933;28;21944;-61
2023/10/26 01:20:29;;;;;;;2.58;1.50;;;;;;;;;;5036793;28;21115;-60
2023/10/26 01:22:55;;;;;;;2.28;1.50;;;;;;;;;;5035597;28;20164;-61
2023/10/26 01:25:20;;;;;;;3.03;1.50;;;;;;;;;;5033018;28;20032;-61
2023/10/26 01:27:46;;;;;;;2.45;1.40;;;;;;;;;;5034225;28;20041;-60
2023/10/26 01:30:12;;;;;;;2.80;1.58;;;;;;;;;;5034101;28;20064;-60
2023/10/26 01:32:38;;;;;;;2.63;1.55;;;;;;;;;;5033214;28;20568;-61
2023/10/26 01:35:04;;;;;;;3.15;1.77;;;;;;;;;;5035416;28;20065;-61
2023/10/26 01:37:29;;;;;;;3.30;1.63;;;;;;;;;;5036013;28;20048;-61
2023/10/26 01:39:55;;;;;;;2.97;1.30;;;;;;;;;;5034256;28;20067;-62
2023/10/26 01:42:21;;;;;;;2.83;1.50;;;;;;;;;;5031770;28;20056;-59
2023/10/26 01:44:46;;;;;;;2.92;1.50;;;;;;;;;;5033686;28;20077;-61
2023/10/26 01:47:13;;;;;;;3.35;1.52;;;;;;;;;;5033832;28;20449;-61
2023/10/26 01:49:38;;;;;;;3.00;1.38;;;;;;;;;;5031448;28;20080;-61
2023/10/26 01:52:04;;;;;;;3.35;1.60;;;;;;;;;;5032643;28;20680;-62
2023/10/26 01:54:29;;;;;;;2.88;1.70;;;;;;;;;;5030389;28;20186;-61
2023/10/26 01:56:55;;;;;;;2.60;1.40;;;;;;;;;;5035577;28;20592;-61
2023/10/26 01:59:21;;;;;;;2.90;1.55;;;;;;;;;;5032918;28;20037;-61
2023/10/26 02:01:46;;;;;;;2.78;1.60;;;;;;;;;;5032912;28;20041;-60
2023/10/26 02:04:12;;;;;;;2.30;1.40;;;;;;;;;;5034401;28;20063;-62
2023/10/26 02:06:37;;;;;;;2.35;1.35;;;;;;;;;;5036974;28;20029;-59
2023/10/26 02:09:03;;;;;;;2.58;1.40;;;;;;;;;;5032029;28;20045;-61
2023/10/26 02:11:29;;;;;;;3.30;1.60;;;;;;;;;;5035228;28;20119;-61
2023/10/26 02:13:54;;;;;;;3.30;1.73;;;;;;;;;;5033729;28;20025;-61
2023/10/26 02:16:20;;;;;;;3.53;1.42;;;;;;;;;;5030354;28;20029;-60
2023/10/26 02:18:45;;;;;;;2.63;1.63;;;;;;;;;;5033097;28;20095;-58
2023/10/26 02:21:11;;;;;;;4.13;1.73;;;;;;;;;;5029786;28;20873;-60
2023/10/26 02:23:38;;;;;;;3.30;1.67;;;;;;;;;;5033005;28;20144;-58
2023/10/26 02:26:04;;;;;;;2.83;1.70;;;;;;;;;;5036472;28;20738;-61
2023/10/26 02:28:29;;;;;;;2.55;1.50;;;;;;;;;;5032532;28;20044;-61
2023/10/26 02:30:55;;;;;;;2.30;1.33;;;;;;;;;;5033579;28;20037;-61
2023/10/26 02:33:21;;;;;;;4.60;1.30;;;;;;;;;;5035917;28;20457;-60
2023/10/26 02:35:46;;;;;;;2.95;1.70;;;;;;;;;;5031376;28;20037;-61
2023/10/26 02:38:12;;;;;;;2.97;1.48;;;;;;;;;;5033383;28;20045;-61
2023/10/26 02:40:38;;;;;;;3.20;1.38;;;;;;;;;;5030734;28;20506;-60
2023/10/26 02:43:03;;;;;;;2.97;1.60;;;;;;;;;;5030815;28;20051;-60
2023/10/26 02:45:30;;;;;;;2.72;1.35;;;;;;;;;;5032925;28;20037;-60
2023/10/26 02:47:56;;;;;;;3.10;1.50;;;;;;;;;;5031596;28;20065;-61
2023/10/26 02:50:22;;;;;;;2.50;1.50;;;;;;;;;;5032012;28;20060;-60
2023/10/26 02:52:47;;;;;;;2.90;1.60;;;;;;;;;;5035186;28;20037;-60
2023/10/26 02:55:13;;;;;;;2.45;1.30;;;;;;;;;;5032268;28;20146;-61
2023/10/26 02:57:39;;;;;;;2.58;1.40;;;;;;;;;;5032665;28;20065;-62
2023/10/26 03:00:05;;;;;;;3.30;1.60;;;;;;;;;;5033763;28;20045;-61
2023/10/26 03:02:31;;;;;;;2.40;1.40;;;;;;;;;;5030422;28;20068;-60
2023/10/26 03:04:56;;;;;;;2.60;1.40;;;;;;;;;;5030460;28;21028;-61
2023/10/26 03:07:22;;;;;;;2.80;1.42;;;;;;;;;;5032758;28;20037;-60
2023/10/26 03:09:49;;;;;;;2.83;1.30;;;;;;;;;;5032661;28;20148;-61
2023/10/26 03:12:15;;;;;;;2.70;1.40;;;;;;;;;;5029341;28;20072;-61
2023/10/26 03:14:40;;;;;;;2.75;1.60;;;;;;;;;;5033397;28;20410;-61
2023/10/26 03:17:06;;;;;;;2.47;1.45;;;;;;;;;;5031946;28;20053;-60
2023/10/26 03:19:32;;;;;;;2.50;1.55;;;;;;;;;;5031721;28;20083;-61
2023/10/26 03:21:57;;;;;;;2.97;1.50;;;;;;;;;;5031669;28;20028;-61
2023/10/26 03:24:23;;;;;;;3.22;1.17;;;;;;;;;;5027687;28;20072;-61
2023/10/26 03:26:49;;;;;;;2.30;1.30;;;;;;;;;;5031081;28;20415;-61
2023/10/26 03:29:14;;;;;;;3.28;1.40;;;;;;;;;;5030883;28;20033;-61
2023/10/26 03:31:41;;;;;;;3.05;1.50;;;;;;;;;;5028912;28;20080;-60
2023/10/26 03:34:07;;;;;;;4.18;1.40;;;;;;;;;;5029924;28;20045;-61
2023/10/26 03:36:32;;;;;;;2.63;1.40;;;;;;;;;;5031681;28;20040;-61
2023/10/26 03:38:58;;;;;;;2.67;1.45;;;;;;;;;;5029851;28;20403;-61
2023/10/26 03:41:24;;;;;;;3.30;1.60;;;;;;;;;;5034133;28;20067;-60
2023/10/26 03:43:50;;;;;;;2.58;1.45;;;;;;;;;;5030021;28;20024;-60
2023/10/26 03:46:15;;;;;;;3.38;1.42;;;;;;;;;;5030475;28;20073;-61
2023/10/26 03:48:41;;;;;;;2.67;1.38;;;;;;;;;;5031757;28;20061;-60
2023/10/26 03:51:06;;;;;;;3.13;1.65;;;;;;;;;;5030017;28;20077;-61
2023/10/26 03:53:32;;;;;;;2.35;1.42;;;;;;;;;;5028190;28;20040;-60
2023/10/26 03:55:58;;;;;;;2.85;1.50;;;;;;;;;;5032216;28;20041;-62
2023/10/26 03:58:23;;;;;;;2.65;1.50;;;;;;;;;;5031834;28;20705;-61
2023/10/26 04:00:51;;;;;;;2.50;1.30;;;;;;;;;;5029161;28;20122;-61
2023/10/26 04:03:16;;;;;;;2.72;1.55;;;;;;;;;;5031789;28;20071;-61
2023/10/26 04:05:42;;;;;;;3.08;1.80;;;;;;;;;;5031440;28;20041;-61
2023/10/26 04:08:09;;;;;;;3.30;1.50;;;;;;;;;;5034167;28;20087;-62
2023/10/26 04:10:35;;;;;;;2.65;1.30;;;;;;;;;;5035079;28;20084;-60
2023/10/26 04:13:01;;;;;;;2.60;1.40;;;;;;;;;;5033496;28;20052;-61
2023/10/26 04:15:27;;;;;;;2.70;1.48;;;;;;;;;;5034567;28;20124;-60
2023/10/26 04:17:52;;;;;;;3.35;1.27;;;;;;;;;;5035666;28;20041;-60
2023/10/26 04:20:20;;;;;;;4.80;1.70;;;;;;;;;;5033816;28;20059;-60
2023/10/26 04:22:46;;;;;;;2.92;1.48;;;;;;;;;;5033762;28;20071;-61
2023/10/26 04:25:12;;;;;;;3.47;1.58;;;;;;;;;;5032820;28;20076;-60
2023/10/26 04:27:38;;;;;;;3.53;1.38;;;;;;;;;;5034268;28;20364;-60
2023/10/26 04:30:03;;;;;;;3.10;1.65;;;;;;;;;;5033725;28;20083;-61
2023/10/26 04:32:29;;;;;;;3.15;1.38;;;;;;;;;;5037002;28;20044;-59
2023/10/26 04:34:54;;;;;;;2.30;1.30;;;;;;;;;;5036681;28;20171;-60
2023/10/26 04:37:20;;;;;;;2.60;1.40;;;;;;;;;;5036322;28;20095;-61
2023/10/26 04:39:46;;;;;;;4.25;1.40;;;;;;;;;;5034563;28;20703;-59
2023/10/26 04:42:12;;;;;;;3.30;1.30;;;;;;;;;;5034616;28;20049;-61
2023/10/26 04:44:38;;;;;;;2.63;1.42;;;;;;;;;;5036261;28;20134;-61
2023/10/26 04:47:04;;;;;;;2.63;1.58;;;;;;;;;;5035930;28;20063;-61
2023/10/26 04:49:29;;;;;;;3.17;1.75;;;;;;;;;;5034202;28;20136;-60
2023/10/26 04:51:55;;;;;;;3.15;1.58;;;;;;;;;;5036814;28;20038;-61
2023/10/26 04:54:21;;;;;;;2.80;1.67;;;;;;;;;;5036438;28;20084;-61
2023/10/26 04:56:46;;;;;;;2.72;1.50;;;;;;;;;;5035104;28;20045;-61
2023/10/26 04:59:12;;;;;;;4.38;1.67;;;;;;;;;;5033232;28;20041;-60
2023/10/26 05:01:38;;;;;;;2.90;1.50;;;;;;;;;;5034124;28;20095;-60
2023/10/26 05:04:04;;;;;;;2.63;1.50;;;;;;;;;;5035699;28;20042;-61
2023/10/26 05:06:29;;;;;;;2.58;1.50;;;;;;;;;;5033275;28;20045;-63
2023/10/26 05:08:55;;;;;;;2.88;1.45;;;;;;;;;;5030915;28;20066;-61
2023/10/26 05:11:20;;;;;;;2.92;1.40;;;;;;;;;;5034337;28;20123;-61
2023/10/26 05:13:48;;;;;;;3.50;1.90;;;;;;;;;;5035783;28;20041;-61
2023/10/26 05:16:13;;;;;;;2.85;1.70;;;;;;;;;;5035442;28;20526;-61
2023/10/26 05:18:39;;;;;;;7.35;1.83;;;;;;;;;;5034541;28;20094;-61
2023/10/26 05:21:05;;;;;;;4.20;2.17;;;;;;;;;;5033087;28;20037;-60
2023/10/26 05:23:30;;;;;;;3.53;1.40;;;;;;;;;;5035229;28;20045;-61
2023/10/26 05:25:56;;;;;;;4.18;1.50;;;;;;;;;;5034435;28;20075;-60
2023/10/26 05:28:21;;;;;;;3.85;1.70;;;;;;;;;;5032406;28;20034;-61
2023/10/26 05:30:47;;;;;;;4.13;1.80;;;;;;;;;;5036193;28;20048;-60
2023/10/26 05:33:15;;;;;;;5.47;1.90;;;;;;;;;;5035858;28;20084;-59
2023/10/26 05:35:40;;;;;;;3.28;1.85;;;;;;;;;;5035677;28;20060;-61
2023/10/26 05:38:06;;;;;;;4.47;2.30;;;;;;;;;;5032196;28;20648;-60
2023/10/26 05:40:32;;;;;;;6.68;2.13;;;;;;;;;;5031630;28;20080;-59
2023/10/26 05:42:57;;;;;;;6.05;1.92;;;;;;;;;;5031416;28;20574;-62
2023/10/26 05:45:23;;;;;;;4.90;1.60;;;;;;;;;;5032807;28;20122;-61
2023/10/26 05:47:52;;;;;;;4.30;1.92;;;;;;;;;;5034978;28;20062;-61
2023/10/26 05:50:18;;;;;;;6.35;2.25;;;;;;;;;;5034509;28;20494;-61
2023/10/26 05:52:44;;;;;;;5.55;2.05;;;;;;;;;;5033181;28;20178;-61
2023/10/26 05:55:10;;;;;;;4.18;1.83;;;;;;;;;;5034546;28;20509;-61
2023/10/26 05:57:35;;;;;;;3.42;1.77;;;;;;;;;;5033644;28;20091;-60
2023/10/26 06:00:01;;;;;;;4.10;1.80;;;;;;;;;;5032085;28;20099;-61
2023/10/26 06:02:26;;;;;;;3.35;1.80;;;;;;;;;;5032225;28;21013;-61
2023/10/26 06:04:52;;;;;;;4.38;1.60;;;;;;;;;;5035244;28;20050;-61
2023/10/26 06:07:17;;;;;;;6.75;1.80;;;;;;;;;;5035660;28;20091;-60
2023/10/26 06:09:43;;;;;;;4.43;1.73;;;;;;;;;;5033280;28;20388;-60
2023/10/26 06:12:09;;;;;;;5.55;2.00;;;;;;;;;;5035774;28;20037;-60
2023/10/26 06:14:35;;;;;;;4.75;2.10;;;;;;;;;;5035257;28;20040;-61
2023/10/26 06:17:01;;;;;;;4.13;1.63;;;;;;;;;;5034928;28;20757;-60
2023/10/26 06:19:26;;;;;;;4.43;1.95;;;;;;;;;;5033233;28;20041;-60
2023/10/26 06:21:52;;;;;;;5.80;2.08;;;;;;;;;;5034763;28;20094;-60
2023/10/26 06:24:17;;;;;;;2.83;1.73;;;;;;;;;;5035301;28;20028;-61
2023/10/26 06:26:43;;;;;;;5.22;1.92;;;;;;;;;;5034517;28;20045;-60
2023/10/26 06:29:09;;;;;;;3.70;1.75;;;;;;;;;;5032964;28;20078;-61
2023/10/26 06:31:35;;;;;;;4.35;2.03;;;;;;;;;;5033395;28;20036;-60
2023/10/26 06:34:00;;;;;;;8.93;1.95;;;;;;;;;;5035504;28;20075;-61
2023/10/26 06:36:26;;;;;;;5.07;1.80;;;;;;;;;;5031839;28;20502;-59
2023/10/26 06:38:54;;;;;;;6.43;2.10;;;;;;;;;;5033353;28;20086;-61
2023/10/26 06:41:19;;;;;;;3.75;1.92;;;;;;;;;;5038220;28;20138;-61
2023/10/26 06:43:45;;;;;;;5.82;2.13;;;;;;;;;;5034920;28;20494;-60
2023/10/26 06:46:10;;;;;;;4.30;1.90;;;;;;;;;;5033288;28;20095;-60
2023/10/26 06:48:36;;;;;;;7.07;1.90;;;;;;;;;;5032192;28;20037;-61
2023/10/26 06:51:02;;;;;;;11.50;1.90;;;;;;;;;;5032289;28;20647;-61
2023/10/26 06:53:28;;;;;;;4.03;2.03;;;;;;;;;;5035681;28;20551;-62
2023/10/26 06:55:54;;;;;;;6.68;2.25;;;;;;;;;;5033976;28;20048;-60
2023/10/26 06:58:20;;;;;;;7.47;2.25;;;;;;;;;;5034579;28;20431;-60
2023/10/26 07:00:45;;;;;;;6.53;3.42;;;;;;;;;;5033015;28;20599;-60
2023/10/26 07:03:11;;;;;;;8.55;3.53;;;;;;;;;;5033046;28;20625;-61
2023/10/26 07:05:37;;;;;;;6.50;3.67;;;;;;;;;;5032976;28;20675;-62
2023/10/26 07:08:02;;;;;;;8.30;4.25;;;;;;;;;;5034738;28;20037;-61
2023/10/26 07:10:28;;;;;;;7.00;4.00;;;;;;;;;;5030117;28;20041;-61
2023/10/26 07:12:54;;;;;;;8.13;4.45;;;;;;;;;;5029087;28;20025;-60
2023/10/26 07:15:19;;;;;;;8.40;4.22;;;;;;;;;;5033954;28;20037;-61
2023/10/26 07:17:45;;;;;;;8.88;4.80;;;;;;;;;;5032847;28;20662;-59
2023/10/26 07:20:12;;;;;;;7.80;4.53;;;;;;;;;;5030975;28;20043;-59
2023/10/26 07:22:38;;;;;;;8.00;4.70;;;;;;;;;;5030288;28;20069;-61
2023/10/26 07:25:05;;;;;;;8.23;4.03;;;;;;;;;;5033482;28;20068;-61
2023/10/26 07:27:30;;;;;;;7.03;3.65;;;;;;;;;;5031973;28;20064;-61
2023/10/26 07:29:56;;;;;;;6.97;3.97;;;;;;;;;;5035585;28;20049;-61
2023/10/26 07:32:22;;;;;;;6.32;3.90;;;;;;;;;;5034802;28;20088;-64
2023/10/26 07:34:47;;;;;;;6.07;3.40;;;;;;;;;;5032378;28;20841;-62
2023/10/26 07:37:13;;;;;;;7.68;3.90;;;;;;;;;;5034563;28;20083;-62
2023/10/26 07:39:38;;;;;;;6.13;3.70;;;;;;;;;;5033933;28;20115;-61
2023/10/26 07:42:04;;;;;;;8.05;4.13;;;;;;;;;;5030563;28;20041;-61
2023/10/26 07:44:31;;;;;;;7.07;3.72;;;;;;;;;;5033937;28;20075;-61
2023/10/26 07:46:57;;;;;;;8.05;3.03;;;;;;;;;;5036695;28;20076;-61
2023/10/26 07:49:22;;;;;;;4.93;3.03;;;;;;;;;;5036884;28;20029;-61
2023/10/26 07:51:49;;;;;;;6.20;3.13;;;;;;;;;;5029096;28;20160;-61
2023/10/26 07:54:15;;;;;;;6.88;3.78;;;;;;;;;;5029492;28;20454;-61
2023/10/26 07:56:40;;;;;;;8.27;3.22;;;;;;;;;;5031952;28;20063;-61
2023/10/26 07:59:06;;;;;;;6.60;3.03;;;;;;;;;;5032369;28;20076;-61
2023/10/26 08:01:31;;;;;;;10.20;2.42;;;;;;;;;;5035606;28;20055;-61
2023/10/26 08:03:57;;;;;;;5.05;2.58;;;;;;;;;;5029561;28;20044;-60
2023/10/26 08:06:23;;;;;;;5.53;2.88;;;;;;;;;;5031248;28;20105;-59
2023/10/26 08:08:50;;;;;;;4.97;2.55;;;;;;;;;;5031871;28;20040;-60
2023/10/26 08:11:16;;;;;;;5.22;2.70;;;;;;;;;;5033506;28;20049;-60
2023/10/26 08:13:41;;;;;;;3.85;2.25;;;;;;;;;;5030911;28;20056;-61
2023/10/26 08:16:07;;;;;;;3.97;2.10;;;;;;;;;;5033691;28;20110;-62
2023/10/26 08:18:33;;;;;;;4.95;2.28;;;;;;;;;;5034888;28;20724;-61
2023/10/26 08:20:59;;;;;;;7.32;2.15;;;;;;;;;;5035984;28;20033;-61
2023/10/26 08:23:29;;;;;;;3.50;1.80;;;;;;;;;;5036449;28;20076;-61
2023/10/26 08:25:55;;;;;;;4.13;2.08;;;;;;;;;;5029005;28;20771;-61
2023/10/26 08:28:20;;;;;;;5.07;2.15;;;;;;;;;;5032760;28;20036;-62
2023/10/26 08:30:46;;;;;;;2.95;1.63;;;;;;;;;;5031046;28;21166;-60
2023/10/26 08:33:11;;;;;;;5.32;2.78;;;;;;;;;;5034910;28;20041;-61
2023/10/26 08:35:39;;;;;;;10.90;5.13;;;;;;;;;;5032003;28;20096;-61
2023/10/26 08:38:04;;;;;;;11.27;6.63;;;;;;;;;;5032661;28;20072;-61
2023/10/26 08:40:30;;;;;;;9.82;6.28;;;;;;;;;;5034014;28;20076;-62
2023/10/26 08:42:56;;;;;;;7.88;4.65;;;;;;;;;;5034538;28;20083;-60
2023/10/26 08:45:23;;;;;;;9.90;5.03;;;;;;;;;;5032367;28;20049;-62
2023/10/26 08:47:50;;;;;;;7.75;5.22;;;;;;;;;;5033124;28;20112;-60
2023/10/26 08:50:19;;;;;;;7.45;5.03;;;;;;;;;;5033251;28;20053;-61
2023/10/26 08:52:45;;;;;;;10.27;6.10;;;;;;;;;;5031445;28;20057;-60
2023/10/26 08:55:10;;;;;;;14.32;6.00;;;;;;;;;;5035010;28;20041;-60
2023/10/26 08:57:46;;;;;;;11.40;6.22;;;;;;;;;;5035183;28;20060;-61
2023/10/26 09:00:12;;;;;;;13.02;6.20;;;;;;;;;;5035307;28;20057;-61
2023/10/26 09:02:38;;;;;;;11.45;5.85;;;;;;;;;;5033862;28;20047;-61
2023/10/26 09:05:04;;;;;;;7.30;5.78;;;;;;;;;;5023498;28;20490;-60
2023/10/26 09:07:30;;;;;;;8.82;5.93;;;;;;;;;;5032825;28;20584;-58
2023/10/26 09:09:55;;;;;;;11.55;6.25;;;;;;;;;;5036322;28;20116;-60
2023/10/26 09:12:21;;;;;;;8.05;5.47;;;;;;;;;;5033217;28;20040;-61
2023/10/26 09:15:08;;;;;;;15.93;6.18;;;;;;;;;;5034280;28;20191;-60
2023/10/26 09:17:34;;;;;;;9.00;4.28;;;;;;;;;;5036859;28;20661;-61
2023/10/26 09:20:22;;;;;;;10.82;4.40;;;;;;;;;;5035915;28;20041;-61
2023/10/26 09:22:47;;;;;;;10.55;4.32;;;;;;;;;;5030842;28;20081;-61
2023/10/26 09:25:14;;;;;;;13.55;4.32;;;;;;;;;;5034510;28;20832;-61
2023/10/26 09:27:41;;;;;;;11.52;4.05;;;;;;;;;;5033996;28;21351;-59
2023/10/26 09:30:20;;;;;;;13.77;4.03;;;;;;;;;;5031860;28;20095;-61
2023/10/26 09:32:46;;;;;;;10.32;3.60;;;;;;;;;;5035807;28;20061;-61
2023/10/26 09:35:23;;;;;;;10.10;3.55;;;;;;;;;;5034607;28;20029;-60
2023/10/26 09:37:52;;;;;;;10.23;3.30;;;;;;;;;;5037252;28;20057;-61
2023/10/26 09:40:18;;;;;;;5.97;2.63;;;;;;;;;;5032735;28;20663;-60
2023/10/26 09:42:44;;;;;;;5.82;2.60;;;;;;;;;;5031835;28;20064;-61
2023/10/26 09:45:10;;;;;;;5.13;2.20;;;;;;;;;;5034574;28;20595;-63
2023/10/26 09:47:36;;;;;;;8.98;2.30;;;;;;;;;;5033889;28;20045;-62
2023/10/26 09:50:02;;;;;;;5.47;2.00;;;;;;;;;;5037130;28;20141;-61
2023/10/26 09:52:27;;;;;;;3.00;1.50;;;;;;;;;;5033525;28;20044;-62
2023/10/26 09:54:53;;;;;;;3.58;1.58;;;;;;;;;;5032765;28;20112;-60
2023/10/26 09:57:22;;;;;;;5.20;1.67;;;;;;;;;;5031559;28;20068;-61
2023/10/26 09:59:51;;;;;;;2.80;1.42;;;;;;;;;;5036148;28;20065;-61
2023/10/26 10:02:17;;;;;;;4.03;1.20;;;;;;;;;;5035310;28;20065;-62
2023/10/26 10:04:43;;;;;;;2.88;0.95;;;;;;;;;;5029511;28;20064;-61
2023/10/26 10:07:09;;;;;;;3.33;1.65;;;;;;;;;;5033117;28;20061;-62
2023/10/26 10:10:03;;;;;;;5.53;1.60;;;;;;;;;;5038008;28;20089;-61
2023/10/26 10:12:28;;;;;;;3.47;1.52;;;;;;;;;;5034592;28;20057;-61
2023/10/26 10:14:55;;;;;;;4.60;1.42;;;;;;;;;;5033518;28;20036;-61
2023/10/26 10:17:22;;;;;;;5.57;1.50;;;;;;;;;;5036061;28;20057;-62
2023/10/26 10:19:48;;;;;;;4.95;1.45;;;;;;;;;;5035518;28;20095;-61
2023/10/26 10:22:37;;;;;;;7.57;1.67;;;;;;;;;;5035592;28;20422;-61
2023/10/26 10:25:02;;;;;;;5.75;1.52;;;;;;;;;;5032558;28;20068;-61
2023/10/26 10:27:29;;;;;;;6.25;1.50;;;;;;;;;;5033006;28;20045;-61
2023/10/26 10:29:58;;;;;;;3.17;1.23;;;;;;;;;;5034896;28;20479;-63
2023/10/26 10:32:42;;;;;;;9.50;1.45;;;;;;;;;;5033374;28;20096;-61
2023/10/26 10:35:08;;;;;;;4.30;1.23;;;;;;;;;;5034108;28;20671;-60
2023/10/26 10:37:33;;;;;;;9.60;1.60;;;;;;;;;;5052698;28;20028;-61
2023/10/26 10:40:12;;;;;;;3.08;1.20;;;;;;;;;;5054753;28;20048;-60
2023/10/26 10:42:39;;;;;;;7.43;1.70;;;;;;;;;;5053631;28;20084;-62
2023/10/26 10:45:08;;;;;;;5.43;1.33;;;;;;;;;;5057413;28;20478;-61
2023/10/26 10:47:34;;;;;;;9.40;1.55;;;;;;;;;;5056279;28;20064;-61
2023/10/26 10:50:18;;;;;;;7.78;1.65;;;;;;;;;;5055721;28;20089;-61
2023/10/26 10:52:44;;;;;;;12.77;1.60;;;;;;;;;;5050435;28;20127;-61
2023/10/26 10:55:10;;;;;;;7.25;1.35;;;;;;;;;;5052225;28;20075;-61
2023/10/26 10:57:50;;;;;;;7.32;1.40;;;;;;;;;;5054730;28;20123;-62
2023/10/26 11:00:15;;;;;;;5.95;1.30;;;;;;;;;;5051030;28;20064;-61
2023/10/26 11:02:52;;;;;;;6.03;1.75;;;;;;;;;;5054263;28;20502;-62
2023/10/26 11:05:18;;;;;;;7.53;1.35;;;;;;;;;;5053680;28;20076;-61
2023/10/26 11:07:43;;;;;;;4.25;1.50;;;;;;;;;;5052359;28;20771;-62
2023/10/26 11:10:09;;;;;;;7.22;1.45;;;;;;;;;;5052729;28;20037;-60
2023/10/26 11:12:35;;;;;;;6.93;1.45;;;;;;;;;;5050795;28;20028;-61
2023/10/26 11:15:01;;;;;;;7.47;1.63;;;;;;;;;;5053001;28;20086;-62
2023/10/26 11:17:27;;;;;;;3.15;1.20;;;;;;;;;;5053421;28;20053;-60
2023/10/26 11:19:53;;;;;;;7.22;1.73;;;;;;;;;;5052080;28;20552;-60
2023/10/26 11:22:20;;;;;;;9.43;1.80;;;;;;;;;;5054499;28;20065;-62
2023/10/26 11:24:45;;;;;;;3.80;1.33;;;;;;;;;;5055001;28;20064;-61
2023/10/26 11:27:11;;;;;;;4.18;1.15;;;;;;;;;;5055031;28;20040;-60
2023/10/26 11:29:37;;;;;;;6.75;1.30;;;;;;;;;;5056761;28;20036;-60
2023/10/26 11:32:03;;;;;;;3.53;1.20;;;;;;;;;;5054690;28;20060;-62
2023/10/26 11:34:28;;;;;;;3.70;1.20;;;;;;;;;;5055221;28;20604;-61
2023/10/26 11:36:54;;;;;;;2.50;1.30;;;;;;;;;;5049521;28;20048;-60
2023/10/26 11:39:20;;;;;;;3.13;1.00;;;;;;;;;;5053703;28;20044;-62
2023/10/26 11:41:52;;;;;;;2.17;1.02;;;;;;;;;;5053170;28;20047;-61
2023/10/26 11:44:25;;;;;;;3.75;1.23;;;;;;;;;;5052582;28;20060;-61
2023/10/26 11:46:57;;;;;;;2.72;0.90;;;;;;;;;;5050664;28;20075;-61
2023/10/26 11:49:39;;;;;;;2.63;1.15;;;;;;;;;;5054624;28;20060;-61
2023/10/26 11:52:05;;;;;;;1.83;0.90;;;;;;;;;;5054275;28;20064;-61
2023/10/26 11:54:30;;;;;;;4.32;1.08;;;;;;;;;;5053083;28;20644;-59
2023/10/26 11:56:56;;;;;;;5.15;1.10;;;;;;;;;;5052769;28;20037;-60
2023/10/26 11:59:21;;;;;;;4.05;1.27;;;;;;;;;;5053392;28;20036;-61
2023/10/26 12:01:47;;;;;;;2.72;1.10;;;;;;;;;;5053545;28;20636;-61
2023/10/26 12:04:13;;;;;;;4.20;1.23;;;;;;;;;;5056394;28;20062;-61
2023/10/26 12:06:38;;;;;;;5.68;1.15;;;;;;;;;;5049776;28;20072;-60
2023/10/26 12:09:06;;;;;;;4.45;1.33;;;;;;;;;;5056225;28;20036;-61
2023/10/26 12:11:34;;;;;;;5.95;1.20;;;;;;;;;;5053482;28;20068;-61
2023/10/26 12:13:59;;;;;;;3.67;1.25;;;;;;;;;;5052086;28;20145;-61
2023/10/26 12:16:25;;;;;;;3.40;1.13;;;;;;;;;;5052665;28;20036;-59
2023/10/26 12:18:51;;;;;;;3.60;0.90;;;;;;;;;;5054026;28;20044;-61
2023/10/26 12:21:17;;;;;;;1.95;0.82;;;;;;;;;;5052804;28;20035;-59
2023/10/26 12:23:42;;;;;;;7.00;1.20;;;;;;;;;;5056143;28;20037;-61
2023/10/26 12:26:08;;;;;;;2.88;1.13;;;;;;;;;;5050739;28;20040;-60
2023/10/26 12:28:33;;;;;;;2.72;0.98;;;;;;;;;;5053692;28;20021;-61
2023/10/26 12:31:00;;;;;;;4.47;1.02;;;;;;;;;;5057837;28;20113;-60
2023/10/26 12:33:27;;;;;;;4.50;1.00;;;;;;;;;;5056667;28;20559;-60
2023/10/26 12:35:53;;;;;;;3.15;1.05;;;;;;;;;;5055580;28;20497;-61
2023/10/26 12:38:19;;;;;;;1.77;0.73;;;;;;;;;;5059806;28;20036;-60
2023/10/26 12:40:48;;;;;;;2.35;0.90;;;;;;;;;;5058437;28;20585;-59
2023/10/26 12:43:13;;;;;;;3.95;0.98;;;;;;;;;;5056775;28;20057;-60
2023/10/26 12:45:39;;;;;;;2.30;0.80;;;;;;;;;;5057792;28;20033;-60
2023/10/26 12:48:05;;;;;;;5.57;0.90;;;;;;;;;;5059479;28;20630;-61
2023/10/26 12:50:30;;;;;;;1.95;0.90;;;;;;;;;;5054351;28;20048;-59
2023/10/26 12:52:56;;;;;;;1.70;0.73;;;;;;;;;;5056049;28;20106;-59
2023/10/26 12:55:23;;;;;;;2.97;0.80;;;;;;;;;;5058569;28;20672;-60
2023/10/26 12:57:50;;;;;;;1.90;0.80;;;;;;;;;;5054031;28;20073;-60
2023/10/26 13:00:15;;;;;;;3.45;0.80;;;;;;;;;;5053290;28;20060;-61
2023/10/26 13:02:41;;;;;;;1.83;0.80;;;;;;;;;;5056852;28;20058;-61
2023/10/26 13:05:07;;;;;;;3.35;0.77;;;;;;;;;;5055892;28;20033;-61
2023/10/26 13:07:33;;;;;;;3.97;1.00;;;;;;;;;;5056861;28;20545;-60
2023/10/26 13:09:58;;;;;;;2.83;1.15;;;;;;;;;;5057914;28;20060;-61
2023/10/26 13:12:24;;;;;;;2.92;0.88;;;;;;;;;;5055967;28;20086;-60
2023/10/26 13:14:50;;;;;;;2.10;0.80;;;;;;;;;;5056524;28;20028;-61
2023/10/26 13:17:15;;;;;;;3.28;0.88;;;;;;;;;;5057498;28;20033;-61
2023/10/26 13:19:41;;;;;;;4.97;1.00;;;;;;;;;;5057772;28;20078;-61
2023/10/26 13:22:06;;;;;;;3.88;0.85;;;;;;;;;;5056012;28;20041;-60
2023/10/26 13:24:32;;;;;;;2.85;0.70;;;;;;;;;;5056205;28;20478;-60
2023/10/26 13:26:58;;;;;;;1.90;0.80;;;;;;;;;;5056499;28;20080;-60
2023/10/26 13:29:23;;;;;;;1.60;0.68;;;;;;;;;;5052847;28;20045;-61
2023/10/26 13:31:49;;;;;;;1.95;0.90;;;;;;;;;;5056901;28;20021;-60
2023/10/26 13:34:15;;;;;;;2.42;0.93;;;;;;;;;;5055499;28;20086;-61
2023/10/26 13:36:40;;;;;;;2.30;0.70;;;;;;;;;;5055420;28;20040;-59
2023/10/26 13:39:06;;;;;;;2.45;0.85;;;;;;;;;;5056490;28;20052;-60
2023/10/26 13:41:31;;;;;;;7.07;0.90;;;;;;;;;;5051830;28;20079;-60
2023/10/26 13:43:58;;;;;;;2.55;0.80;;;;;;;;;;5057045;28;20024;-60
2023/10/26 13:46:25;;;;;;;2.78;1.00;;;;;;;;;;5054851;28;20056;-60
2023/10/26 13:48:50;;;;;;;3.83;1.02;;;;;;;;;;5057048;28;20130;-60
2023/10/26 13:51:17;;;;;;;3.50;0.98;;;;;;;;;;5052589;28;20024;-60
2023/10/26 13:53:43;;;;;;;1.98;0.65;;;;;;;;;;5054356;28;20036;-60
2023/10/26 13:56:08;;;;;;;2.47;0.73;;;;;;;;;;5056363;28;20405;-61
2023/10/26 13:58:34;;;;;;;5.00;1.10;;;;;;;;;;5054715;28;20090;-61
2023/10/26 14:01:00;;;;;;;5.60;1.00;;;;;;;;;;5056222;28;20493;-61
2023/10/26 14:03:25;;;;;;;3.10;0.90;;;;;;;;;;5056942;28;20036;-61
2023/10/26 14:05:52;;;;;;;1.40;0.60;;;;;;;;;;5056462;28;20090;-60
2023/10/26 14:08:18;;;;;;;2.53;0.85;;;;;;;;;;5055982;28;20067;-60
2023/10/26 14:10:44;;;;;;;1.75;0.77;;;;;;;;;;5057276;28;20056;-60
2023/10/26 14:13:09;;;;;;;2.00;0.70;;;;;;;;;;5056551;28;20068;-61
2023/10/26 14:15:35;;;;;;;4.28;1.15;;;;;;;;;;5056269;28;20040;-60
2023/10/26 14:18:00;;;;;;;2.25;0.82;;;;;;;;;;5054353;28;20098;-60
2023/10/26 14:20:26;;;;;;;3.25;0.90;;;;;;;;;;5054675;28;20028;-61
2023/10/26 14:22:52;;;;;;;1.70;0.70;;;;;;;;;;5053862;28;20032;-61
2023/10/26 14:25:18;;;;;;;1.40;0.70;;;;;;;;;;5054908;28;20098;-61
2023/10/26 14:27:43;;;;;;;2.63;1.00;;;;;;;;;;5055452;28;20035;-60
2023/10/26 14:30:09;;;;;;;1.90;0.80;;;;;;;;;;5053660;28;20041;-59
2023/10/26 14:32:35;;;;;;;2.00;0.70;;;;;;;;;;5055501;28;20045;-61
2023/10/26 14:35:00;;;;;;;1.95;0.70;;;;;;;;;;5054866;28;20075;-59
2023/10/26 14:37:26;;;;;;;1.70;0.70;;;;;;;;;;5054960;28;20243;-60